Time;durP1;ratioP1;P1;durP2;ratioP2;P2;SDS_P1;SDS_P2;PMS_P1;PMS_P2;Temp;Humidity;BMP_temperature;BMP_pressure;BME280_temperature;BME280_humidity;BME280_pressure;Samples;Min_cycle;Max_cycle;Signal;HPM_P1;HPM_P2
2022/08/04 00:00:43;;;;;;;;;;;26.10;65.80;;;;;;4993312;28;20037;-67
2022/08/04 00:03:17;;;;;;;10.07;5.20;;;26.10;64.90;;;;;;5002248;28;19913;-67
2022/08/04 00:06:00;;;;;;;7.97;5.43;;;26.00;65.80;;;;;;5010861;28;20060;-67
2022/08/04 00:08:43;;;;;;;8.73;5.75;;;26.00;66.30;;;;;;5009853;28;20488;-67
2022/08/04 00:11:13;;;;;;;6.70;5.57;;;26.00;66.30;;;;;;5010115;28;20026;-67
2022/08/04 00:13:41;;;;;;;6.82;5.38;;;26.00;66.40;;;;;;5014381;28;20021;-67
2022/08/04 00:16:09;;;;;;;9.70;5.90;;;25.90;66.30;;;;;;5014943;28;20053;-67
2022/08/04 00:18:49;;;;;;;8.13;5.70;;;26.00;66.40;;;;;;5013112;28;20381;-67
2022/08/04 00:21:17;;;;;;;9.30;5.95;;;25.90;66.40;;;;;;5013935;28;20034;-67
2022/08/04 00:23:44;;;;;;;7.03;5.18;;;25.90;66.60;;;;;;5014657;28;20041;-67
2022/08/04 00:26:10;;;;;;;9.65;5.72;;;25.90;66.30;;;;;;5014272;28;20443;-67
2022/08/04 00:28:41;;;;;;;6.85;5.35;;;25.90;66.50;;;;;;5013647;28;20025;-68
2022/08/04 00:31:10;;;;;;;7.78;5.07;;;25.80;66.30;;;;;;5013387;28;20026;-68
2022/08/04 00:33:37;;;;;;;7.07;4.97;;;25.90;66.60;;;;;;5014004;28;20018;-67
2022/08/04 00:36:03;;;;;;;7.28;4.75;;;25.80;66.50;;;;;;5014261;28;20037;-67
2022/08/04 00:38:30;;;;;;;6.72;5.07;;;25.80;66.40;;;;;;5014533;28;20030;-67
2022/08/04 00:41:22;;;;;;;6.97;5.15;;;25.80;66.30;;;;;;5014161;28;20076;-67
2022/08/04 00:44:06;;;;;;;5.60;4.35;;;25.80;66.30;;;;;;5012689;28;20076;-67
2022/08/04 00:47:07;;;;;;;6.25;4.97;;;25.70;66.20;;;;;;5011765;28;20026;-67
2022/08/04 00:49:42;;;;;;;7.60;4.40;;;25.70;66.40;;;;;;5013492;28;20359;-67
2022/08/04 00:52:25;;;;;;;5.25;4.60;;;25.70;66.50;;;;;;5013679;28;20034;-68
2022/08/04 00:55:18;;;;;;;6.18;4.68;;;25.70;66.70;;;;;;5014506;28;20428;-67
2022/08/04 00:58:02;;;;;;;6.90;4.68;;;25.70;66.90;;;;;;5013495;28;20026;-67
2022/08/04 01:00:41;;;;;;;6.93;4.75;;;25.70;67.20;;;;;;5013902;28;20026;-67
2022/08/04 01:03:35;;;;;;;7.63;5.07;;;25.60;67.30;;;;;;5012620;28;20088;-66
2022/08/04 01:06:33;;;;;;;6.65;4.53;;;25.50;67.20;;;;;;5012056;28;20063;-67
2022/08/04 01:09:23;;;;;;;7.43;5.28;;;25.50;67.10;;;;;;5011849;28;20026;-67
2022/08/04 01:12:01;;;;;;;7.60;5.00;;;25.50;67.20;;;;;;5011324;28;20037;-67
2022/08/04 01:14:48;;;;;;;9.20;4.97;;;25.50;67.40;;;;;;5011373;28;20054;-67
2022/08/04 01:17:24;;;;;;;8.32;5.25;;;25.50;67.40;;;;;;5009284;28;20037;-67
2022/08/04 01:20:10;;;;;;;9.18;4.70;;;25.50;67.80;;;;;;5011655;28;20037;-67
2022/08/04 01:22:57;;;;;;;6.85;4.80;;;25.40;67.60;;;;;;5011755;28;20473;-67
2022/08/04 01:25:47;;;;;;;10.90;5.30;;;25.40;67.80;;;;;;5005623;28;20072;-67
2022/08/04 01:28:34;;;;;;;7.88;4.78;;;25.40;68.40;;;;;;5011317;28;20036;-67
2022/08/04 01:31:19;;;;;;;7.30;5.10;;;25.40;68.60;;;;;;5012180;28;20033;-67
2022/08/04 01:33:48;;;;;;;6.88;4.22;;;25.30;68.40;;;;;;5011111;28;20034;-67
2022/08/04 01:36:14;;;;;;;9.30;5.05;;;25.30;68.60;;;;;;5013377;28;20096;-67
2022/08/04 01:38:42;;;;;;;7.25;4.95;;;25.30;68.80;;;;;;5010727;28;20030;-66
2022/08/04 01:41:12;;;;;;;8.18;5.68;;;25.30;68.70;;;;;;5010269;28;20041;-67
2022/08/04 01:43:43;;;;;;;8.35;5.00;;;25.20;69.00;;;;;;5012063;28;20034;-69
2022/08/04 01:46:16;;;;;;;7.97;4.55;;;25.20;68.70;;;;;;5011314;28;20026;-69
2022/08/04 01:48:45;;;;;;;6.13;4.40;;;25.20;68.70;;;;;;5009068;28;20036;-69
2022/08/04 01:51:11;;;;;;;6.25;4.38;;;25.20;68.90;;;;;;5009938;28;20105;-66
2022/08/04 01:53:40;;;;;;;7.68;4.70;;;25.10;68.70;;;;;;5011839;28;20030;-70
2022/08/04 01:56:08;;;;;;;6.93;4.40;;;25.10;68.80;;;;;;5011724;28;20034;-69
2022/08/04 01:58:36;;;;;;;7.72;4.25;;;25.10;68.80;;;;;;5010917;28;20029;-67
2022/08/04 02:01:04;;;;;;;6.57;5.13;;;25.10;69.00;;;;;;5011584;28;20071;-68
2022/08/04 02:03:31;;;;;;;5.43;4.15;;;25.00;69.40;;;;;;5010432;28;20030;-68
2022/08/04 02:06:15;;;;;;;8.65;4.55;;;25.00;69.20;;;;;;4972705;28;1051322;-69
2022/08/04 02:09:18;;;;;;;7.38;4.45;;;24.90;69.30;;;;;;5011301;28;20038;-69
2022/08/04 02:12:12;;;;;;;6.05;4.82;;;24.90;69.10;;;;;;5012905;28;20029;-69
2022/08/04 02:14:48;;;;;;;5.53;4.60;;;24.90;69.10;;;;;;5018281;28;20037;-69
2022/08/04 02:17:21;;;;;;;7.93;5.13;;;24.90;69.30;;;;;;5011629;28;20038;-69
2022/08/04 02:20:06;;;;;;;6.45;4.20;;;24.80;69.10;;;;;;5012413;28;20038;-69
2022/08/04 02:22:43;;;;;;;5.78;4.57;;;24.80;69.20;;;;;;5010368;28;20033;-68
2022/08/04 02:25:11;;;;;;;5.95;4.35;;;24.70;69.20;;;;;;5011119;28;20041;-67
2022/08/04 02:27:54;;;;;;;7.88;4.50;;;24.70;69.60;;;;;;5011063;28;20026;-67
2022/08/04 02:30:21;;;;;;;6.07;4.25;;;24.70;69.70;;;;;;5013028;28;20025;-69
2022/08/04 02:32:51;;;;;;;8.43;4.63;;;24.70;69.80;;;;;;5011527;28;20091;-69
2022/08/04 02:35:38;;;;;;;7.18;4.65;;;24.60;70.00;;;;;;5011471;28;20403;-68
2022/08/04 02:38:28;;;;;;;7.43;4.75;;;24.60;70.10;;;;;;5005091;28;20029;-68
2022/08/04 02:40:57;;;;;;;6.25;4.10;;;24.60;70.20;;;;;;5003382;28;20058;-68
2022/08/04 02:43:24;;;;;;;6.78;4.20;;;24.50;70.30;;;;;;5010883;28;20095;-68
2022/08/04 02:45:55;;;;;;;7.10;4.75;;;24.50;70.60;;;;;;5012900;28;20137;-68
2022/08/04 02:48:24;;;;;;;6.22;3.95;;;24.40;70.50;;;;;;5011150;28;20018;-68
2022/08/04 02:50:51;;;;;;;10.88;4.50;;;24.40;70.60;;;;;;5012438;28;20040;-67
2022/08/04 02:53:20;;;;;;;7.75;4.05;;;24.40;70.60;;;;;;5011037;28;20041;-67
2022/08/04 02:55:47;;;;;;;5.57;4.20;;;24.40;70.80;;;;;;5010321;28;20046;-68
2022/08/04 02:58:18;;;;;;;5.43;4.47;;;24.40;71.30;;;;;;5005536;28;20060;-68
2022/08/04 03:00:44;;;;;;;6.90;4.22;;;24.30;71.30;;;;;;5008530;28;20034;-68
2022/08/04 03:03:43;;;;;;;8.13;5.15;;;24.30;71.30;;;;;;5009388;28;20032;-68
2022/08/04 03:06:10;;;;;;;7.65;5.25;;;24.30;71.20;;;;;;5012541;28;20084;-67
2022/08/04 03:08:53;;;;;;;5.72;4.53;;;24.30;71.60;;;;;;5009400;28;20026;-67
2022/08/04 03:11:37;;;;;;;5.57;4.20;;;24.20;71.70;;;;;;5012550;28;20026;-69
2022/08/04 03:14:19;;;;;;;7.43;4.82;;;24.20;71.80;;;;;;5008507;28;20033;-68
2022/08/04 03:17:08;;;;;;;6.60;4.70;;;24.20;72.20;;;;;;5012294;28;20153;-68
2022/08/04 03:19:47;;;;;;;5.80;4.50;;;24.10;72.10;;;;;;5007399;28;20029;-68
2022/08/04 03:22:26;;;;;;;6.72;4.53;;;24.10;72.40;;;;;;5009971;28;20084;-69
2022/08/04 03:25:16;;;;;;;11.25;5.88;;;24.10;72.40;;;;;;5012534;28;20111;-68
2022/08/04 03:28:06;;;;;;;6.78;4.35;;;24.00;72.50;;;;;;5010956;28;20065;-67
2022/08/04 03:30:48;;;;;;;8.75;4.82;;;24.00;72.90;;;;;;5011721;28;20030;-68
2022/08/04 03:33:44;;;;;;;8.82;4.55;;;24.00;73.00;;;;;;5008920;28;20125;-67
2022/08/04 03:36:27;;;;;;;6.25;4.53;;;23.90;73.30;;;;;;5010858;28;20389;-67
2022/08/04 03:39:17;;;;;;;5.97;5.00;;;23.90;73.10;;;;;;5009883;28;20080;-68
2022/08/04 03:42:14;;;;;;;6.53;4.95;;;23.90;73.30;;;;;;5008820;28;20038;-69
2022/08/04 03:45:02;;;;;;;6.53;4.57;;;23.90;73.40;;;;;;4999327;28;20088;-68
2022/08/04 03:47:37;;;;;;;7.30;5.03;;;23.80;73.50;;;;;;4995327;28;20041;-68
2022/08/04 03:50:21;;;;;;;6.55;4.75;;;23.80;73.80;;;;;;5010571;28;20435;-68
2022/08/04 03:53:08;;;;;;;6.03;4.68;;;23.80;74.10;;;;;;5010130;28;20095;-68
2022/08/04 03:55:48;;;;;;;5.07;4.53;;;23.80;74.20;;;;;;5008451;28;20397;-67
2022/08/04 03:58:23;;;;;;;5.63;4.78;;;23.70;74.30;;;;;;5009724;28;20448;-67
2022/08/04 04:01:04;;;;;;;8.95;5.00;;;23.70;74.50;;;;;;5009923;28;20057;-67
2022/08/04 04:03:59;;;;;;;7.78;4.70;;;23.70;74.60;;;;;;5009681;28;20575;-67
2022/08/04 04:06:34;;;;;;;5.95;4.45;;;23.70;74.80;;;;;;5010683;28;20428;-67
2022/08/04 04:09:16;;;;;;;6.30;5.22;;;23.70;75.10;;;;;;5000780;28;20054;-69
2022/08/04 04:11:44;;;;;;;5.90;4.85;;;23.70;75.20;;;;;;5008782;28;20377;-68
2022/08/04 04:14:25;;;;;;;11.05;5.65;;;23.70;75.40;;;;;;5008254;28;20057;-68
2022/08/04 04:17:14;;;;;;;6.32;4.65;;;23.60;75.50;;;;;;5011695;28;20034;-68
2022/08/04 04:20:27;;;;;;;5.35;4.70;;;23.60;75.70;;;;;;4991733;28;20033;-68
2022/08/04 04:23:23;;;;;;;5.75;4.75;;;23.60;75.70;;;;;;4998068;28;20433;-68
2022/08/04 04:26:21;;;;;;;7.40;5.18;;;23.60;75.90;;;;;;5010567;28;20026;-68
2022/08/04 04:29:02;;;;;;;9.70;5.90;;;23.60;76.00;;;;;;5006735;28;20579;-68
2022/08/04 04:31:34;;;;;;;7.70;5.53;;;23.60;76.10;;;;;;5010489;28;20045;-68
2022/08/04 04:34:24;;;;;;;7.22;5.35;;;23.60;76.40;;;;;;5009249;28;20026;-68
2022/08/04 04:37:22;;;;;;;7.55;5.35;;;23.60;76.60;;;;;;4998426;28;20034;-68
2022/08/04 04:40:32;;;;;;;8.65;5.90;;;23.60;76.80;;;;;;4986683;28;20490;-68
2022/08/04 04:43:16;;;;;;;8.52;5.43;;;23.60;77.30;;;;;;5001855;28;20084;-68
2022/08/04 04:45:59;;;;;;;8.90;6.37;;;23.60;76.90;;;;;;5005654;28;20498;-68
2022/08/04 04:48:52;;;;;;;7.43;5.82;;;23.60;76.90;;;;;;5002016;28;20058;-68
2022/08/04 04:51:27;;;;;;;13.25;6.35;;;23.60;76.80;;;;;;5010821;28;20515;-68
2022/08/04 04:54:09;;;;;;;14.25;6.20;;;23.60;77.00;;;;;;5009198;28;20481;-69
2022/08/04 04:56:40;;;;;;;14.05;7.18;;;23.60;77.00;;;;;;5010203;28;20424;-67
2022/08/04 04:59:14;;;;;;;12.30;6.80;;;23.60;77.10;;;;;;5010329;28;20018;-67
2022/08/04 05:01:58;;;;;;;8.40;6.18;;;23.60;77.30;;;;;;5013687;28;20034;-68
2022/08/04 05:05:01;;;;;;;10.52;6.45;;;23.60;77.40;;;;;;5008820;28;20105;-69
2022/08/04 05:07:45;;;;;;;12.60;6.57;;;23.60;77.20;;;;;;5005681;28;20029;-68
2022/08/04 05:10:25;;;;;;;15.38;6.53;;;23.60;77.20;;;;;;5013295;28;20117;-68
2022/08/04 05:12:57;;;;;;;15.70;7.13;;;23.60;77.30;;;;;;5013595;28;20444;-68
2022/08/04 05:15:30;;;;;;;14.00;7.32;;;23.60;77.50;;;;;;5012947;28;20041;-68
2022/08/04 05:17:59;;;;;;;9.48;7.05;;;23.60;77.50;;;;;;5013675;28;20061;-68
2022/08/04 05:20:37;;;;;;;8.85;6.43;;;23.70;77.50;;;;;;5011837;28;20076;-68
2022/08/04 05:23:20;;;;;;;10.98;7.22;;;23.70;77.50;;;;;;5011784;28;20112;-68
2022/08/04 05:25:54;;;;;;;9.48;6.38;;;23.70;77.50;;;;;;4994844;28;20026;-68
2022/08/04 05:28:25;;;;;;;9.27;6.72;;;23.80;77.60;;;;;;5019994;28;20547;-68
2022/08/04 05:30:59;;;;;;;14.73;6.65;;;23.80;77.60;;;;;;5013627;28;20026;-68
2022/08/04 05:34:04;;;;;;;12.93;7.82;;;23.90;77.70;;;;;;5010409;28;20030;-68
2022/08/04 05:36:38;;;;;;;9.75;6.57;;;23.90;77.60;;;;;;5010430;28;20049;-69
2022/08/04 05:39:06;;;;;;;10.15;6.90;;;23.90;77.70;;;;;;5010189;28;20029;-68
2022/08/04 05:41:33;;;;;;;7.90;6.82;;;24.00;77.60;;;;;;5009414;28;20034;-68
2022/08/04 05:44:00;;;;;;;21.10;7.70;;;24.00;77.60;;;;;;5011542;28;20113;-68
2022/08/04 05:46:28;;;;;;;14.43;7.18;;;24.10;77.50;;;;;;5011864;28;20025;-68
2022/08/04 05:48:54;;;;;;;19.38;7.32;;;24.20;77.30;;;;;;5010430;28;20033;-68
2022/08/04 05:51:20;;;;;;;11.30;6.97;;;24.20;77.10;;;;;;4994361;28;20026;-68
2022/08/04 05:53:47;;;;;;;7.40;6.28;;;24.30;76.90;;;;;;5004632;28;20084;-68
2022/08/04 05:56:15;;;;;;;7.95;6.20;;;24.30;76.50;;;;;;5013727;28;20066;-67
2022/08/04 05:58:42;;;;;;;7.60;6.28;;;24.40;76.30;;;;;;5011761;28;20408;-67
2022/08/04 06:01:09;;;;;;;7.40;6.55;;;24.40;76.10;;;;;;5007690;28;20038;-68
2022/08/04 06:03:37;;;;;;;9.25;6.40;;;24.50;75.90;;;;;;5010454;28;20022;-67
2022/08/04 06:06:03;;;;;;;11.32;6.47;;;24.60;75.80;;;;;;5011628;28;20046;-69
2022/08/04 06:08:30;;;;;;;10.38;6.85;;;24.60;75.80;;;;;;5012616;28;20033;-69
2022/08/04 06:10:59;;;;;;;12.63;7.47;;;24.70;75.60;;;;;;5010396;28;20076;-68
2022/08/04 06:13:40;;;;;;;12.07;7.75;;;24.80;75.30;;;;;;5010669;28;20022;-68
2022/08/04 06:16:07;;;;;;;10.50;7.70;;;24.80;75.10;;;;;;5010376;28;20048;-67
2022/08/04 06:18:35;;;;;;;11.43;7.13;;;24.90;74.90;;;;;;5010575;28;20033;-68
2022/08/04 06:21:03;;;;;;;12.43;7.03;;;25.00;74.90;;;;;;5013261;28;20076;-69
2022/08/04 06:23:31;;;;;;;11.10;7.28;;;25.00;74.70;;;;;;5003792;28;20495;-68
2022/08/04 06:25:59;;;;;;;8.52;6.60;;;25.10;74.70;;;;;;5010614;28;20033;-69
2022/08/04 06:28:28;;;;;;;10.57;7.18;;;25.10;74.70;;;;;;5010171;28;20385;-68
2022/08/04 06:30:54;;;;;;;9.90;6.85;;;25.20;74.40;;;;;;5010132;28;20030;-69
2022/08/04 06:33:32;;;;;;;10.13;6.60;;;25.30;74.00;;;;;;5012309;28;20033;-68
2022/08/04 06:36:00;;;;;;;12.10;7.35;;;25.30;73.70;;;;;;5008722;28;20041;-69
2022/08/04 06:38:28;;;;;;;10.95;5.80;;;25.40;73.70;;;;;;5012027;28;20105;-68
2022/08/04 06:40:56;;;;;;;9.48;6.00;;;25.50;74.20;;;;;;5012972;28;20033;-69
2022/08/04 06:43:23;;;;;;;7.95;5.63;;;25.60;73.80;;;;;;5010978;28;20033;-68
2022/08/04 06:45:49;;;;;;;13.88;5.70;;;25.70;73.30;;;;;;5011583;28;20080;-67
2022/08/04 06:48:17;;;;;;;10.23;6.10;;;25.70;72.90;;;;;;5011908;28;20034;-67
2022/08/04 06:50:46;;;;;;;10.40;6.72;;;25.80;72.50;;;;;;5012366;28;20108;-68
2022/08/04 06:53:12;;;;;;;13.05;6.45;;;25.90;72.70;;;;;;5010613;28;20501;-66
2022/08/04 06:55:39;;;;;;;7.72;5.55;;;26.00;72.00;;;;;;5012007;28;20049;-67
2022/08/04 06:58:07;;;;;;;11.35;6.07;;;26.00;72.20;;;;;;5011694;28;20026;-66
2022/08/04 07:00:34;;;;;;;13.77;6.03;;;26.10;72.20;;;;;;5012382;28;20481;-66
2022/08/04 07:03:01;;;;;;;6.68;5.32;;;26.20;71.70;;;;;;5011510;28;20058;-66
2022/08/04 07:05:27;;;;;;;11.25;6.00;;;26.30;71.60;;;;;;5011711;28;20464;-66
2022/08/04 07:07:53;;;;;;;10.77;5.10;;;26.40;71.50;;;;;;5009993;28;20030;-67
2022/08/04 07:10:21;;;;;;;8.15;5.57;;;26.50;71.00;;;;;;5012510;28;20080;-67
2022/08/04 07:12:48;;;;;;;10.05;5.65;;;26.50;70.70;;;;;;5011406;28;20026;-67
2022/08/04 07:15:17;;;;;;;10.77;5.28;;;26.60;69.90;;;;;;5012533;28;20120;-67
2022/08/04 07:17:44;;;;;;;7.20;4.78;;;26.70;70.50;;;;;;5009867;28;20029;-67
2022/08/04 07:20:09;;;;;;;8.30;5.13;;;26.80;70.10;;;;;;5012093;28;20032;-67
2022/08/04 07:22:36;;;;;;;7.40;5.10;;;26.90;69.70;;;;;;5008817;28;20105;-67
2022/08/04 07:25:08;;;;;;;7.55;5.68;;;27.00;69.10;;;;;;5009968;28;20061;-67
2022/08/04 07:27:34;;;;;;;8.63;5.05;;;27.10;68.90;;;;;;5011067;28;20123;-67
2022/08/04 07:30:00;;;;;;;9.65;5.25;;;27.20;68.70;;;;;;5011921;28;20113;-66
2022/08/04 07:32:26;;;;;;;6.95;4.65;;;27.30;68.50;;;;;;5011316;28;20489;-67
2022/08/04 07:34:53;;;;;;;9.55;4.95;;;27.40;67.70;;;;;;5010557;28;20378;-67
2022/08/04 07:37:19;;;;;;;9.07;4.80;;;27.50;67.60;;;;;;5011263;28;20133;-66
2022/08/04 07:39:45;;;;;;;7.10;4.78;;;27.60;67.70;;;;;;5011651;28;20058;-67
2022/08/04 07:42:11;;;;;;;7.38;4.85;;;27.60;67.00;;;;;;5011262;28;20381;-66
2022/08/04 07:44:37;;;;;;;6.20;4.82;;;27.70;67.40;;;;;;5011634;28;20037;-66
2022/08/04 07:47:05;;;;;;;6.32;4.60;;;27.80;66.70;;;;;;5011157;28;20022;-66
2022/08/04 07:49:33;;;;;;;6.32;4.68;;;27.90;66.40;;;;;;5009602;28;20481;-67
2022/08/04 07:52:00;;;;;;;6.20;4.32;;;27.90;66.20;;;;;;5011472;28;20108;-67
2022/08/04 07:54:26;;;;;;;8.95;5.00;;;28.00;66.20;;;;;;5002975;28;20030;-67
2022/08/04 07:56:52;;;;;;;5.97;4.53;;;28.10;65.80;;;;;;5003910;28;20101;-68
2022/08/04 07:59:18;;;;;;;6.97;4.82;;;28.20;65.20;;;;;;5005289;28;20026;-67
2022/08/04 08:01:45;;;;;;;6.30;4.32;;;28.20;65.60;;;;;;4996696;28;20033;-66
2022/08/04 08:04:11;;;;;;;8.65;4.30;;;28.40;65.50;;;;;;5004888;28;20077;-68
2022/08/04 08:06:41;;;;;;;7.95;4.32;;;28.40;65.20;;;;;;5007275;28;20184;-68
2022/08/04 08:09:09;;;;;;;8.35;4.97;;;28.50;64.60;;;;;;5010031;28;20026;-68
2022/08/04 08:11:35;;;;;;;6.85;4.13;;;28.60;64.30;;;;;;5003253;28;20096;-68
2022/08/04 08:14:01;;;;;;;6.00;4.25;;;28.70;64.10;;;;;;5006255;28;20050;-67
2022/08/04 08:16:27;;;;;;;9.40;4.47;;;28.70;63.60;;;;;;5011377;28;20457;-69
2022/08/04 08:18:53;;;;;;;9.07;4.13;;;28.90;63.30;;;;;;5010453;28;20036;-68
2022/08/04 08:21:20;;;;;;;6.90;4.35;;;29.00;63.00;;;;;;5009130;28;20042;-68
2022/08/04 08:23:47;;;;;;;6.60;4.55;;;29.10;62.90;;;;;;4998440;28;20033;-68
2022/08/04 08:26:12;;;;;;;8.63;4.00;;;29.20;62.80;;;;;;5001307;28;20026;-68
2022/08/04 08:28:38;;;;;;;8.70;3.97;;;29.30;62.80;;;;;;5010410;28;20131;-67
2022/08/04 08:31:04;;;;;;;6.20;4.32;;;29.40;62.70;;;;;;5011172;28;20034;-67
2022/08/04 08:33:30;;;;;;;5.55;3.92;;;29.40;63.10;;;;;;5017318;28;20033;-68
2022/08/04 08:36:33;;;;;;;6.13;3.65;;;29.50;62.20;;;;;;5014291;28;20060;-68
2022/08/04 08:39:13;;;;;;;7.55;4.28;;;29.60;62.10;;;;;;5014288;28;20099;-68
2022/08/04 08:42:13;;;;;;;8.10;3.58;;;29.70;62.00;;;;;;5014450;28;20029;-69
2022/08/04 08:44:42;;;;;;;3.95;3.53;;;29.80;61.50;;;;;;5010464;28;20026;-68
2022/08/04 08:47:27;;;;;;;8.23;4.43;;;29.90;61.30;;;;;;5011667;28;20041;-68
2022/08/04 08:50:17;;;;;;;5.03;3.80;;;30.10;60.90;;;;;;5025237;28;20034;-69
2022/08/04 08:52:57;;;;;;;5.25;3.78;;;30.10;61.10;;;;;;5013063;28;20076;-68
2022/08/04 08:55:30;;;;;;;5.30;3.97;;;30.20;60.60;;;;;;5013585;28;20096;-68
2022/08/04 08:58:19;;;;;;;5.72;3.63;;;30.30;60.90;;;;;;5010631;28;20511;-68
2022/08/04 09:00:58;;;;;;;6.97;4.35;;;30.40;60.70;;;;;;5012840;28;20040;-67
2022/08/04 09:03:54;;;;;;;6.00;3.92;;;30.50;60.50;;;;;;5010816;28;20033;-67
2022/08/04 09:06:39;;;;;;;5.43;3.72;;;30.70;60.60;;;;;;5013969;28;20045;-67
2022/08/04 09:09:36;;;;;;;5.97;4.13;;;30.70;60.30;;;;;;5013298;28;20190;-66
2022/08/04 09:12:21;;;;;;;6.35;4.47;;;30.90;60.20;;;;;;4997951;28;21169;-67
2022/08/04 09:14:59;;;;;;;10.68;4.50;;;31.00;59.50;;;;;;5013526;28;20665;-67
2022/08/04 09:17:46;;;;;;;8.07;4.40;;;31.10;59.10;;;;;;5012523;28;20034;-66
2022/08/04 09:20:30;;;;;;;5.60;3.92;;;31.20;59.20;;;;;;5013731;28;20030;-67
2022/08/04 09:23:12;;;;;;;6.22;4.20;;;31.20;58.80;;;;;;5013183;28;20036;-68
2022/08/04 09:26:01;;;;;;;5.68;4.40;;;31.30;58.70;;;;;;5013249;28;20108;-67
2022/08/04 09:28:34;;;;;;;9.30;4.10;;;31.40;58.90;;;;;;5013543;28;20030;-67
2022/08/04 09:31:12;;;;;;;7.80;4.50;;;31.50;58.30;;;;;;5013535;28;20029;-68
2022/08/04 09:33:52;;;;;;;6.53;4.45;;;31.60;58.20;;;;;;5011174;28;20038;-68
2022/08/04 09:36:45;;;;;;;7.00;3.85;;;31.70;58.30;;;;;;4999589;28;20034;-69
2022/08/04 09:39:18;;;;;;;7.72;3.90;;;31.80;58.50;;;;;;5008544;28;20483;-68
2022/08/04 09:42:00;;;;;;;5.82;4.07;;;31.90;57.90;;;;;;5012407;28;20037;-67
2022/08/04 09:44:48;;;;;;;7.75;3.70;;;32.10;57.10;;;;;;5013176;28;20030;-68
2022/08/04 09:47:23;;;;;;;4.78;3.20;;;32.10;56.40;;;;;;5013309;28;20404;-68
2022/08/04 09:50:01;;;;;;;3.90;3.35;;;32.20;56.00;;;;;;5013252;28;20049;-66
2022/08/04 09:53:12;;;;;;;6.72;3.72;;;32.30;55.50;;;;;;5011228;28;20385;-67
2022/08/04 09:55:44;;;;;;;4.85;3.28;;;32.40;55.80;;;;;;5012555;28;20053;-67
2022/08/04 09:58:56;;;;;;;5.80;3.45;;;32.50;55.20;;;;;;5013417;28;20429;-67
2022/08/04 10:01:25;;;;;;;5.47;3.88;;;32.60;55.60;;;;;;5012953;28;20057;-67
2022/08/04 10:04:03;;;;;;;7.15;3.50;;;32.60;55.10;;;;;;5013884;28;20484;-67
2022/08/04 10:07:13;;;;;;;5.60;3.63;;;32.70;55.40;;;;;;5012239;28;20045;-67
2022/08/04 10:09:45;;;;;;;5.57;2.80;;;32.80;54.90;;;;;;5013079;28;20568;-67
2022/08/04 10:12:26;;;;;;;9.00;3.60;;;32.90;53.90;;;;;;5011655;28;20026;-67
2022/08/04 10:15:28;;;;;;;5.18;3.47;;;33.00;54.10;;;;;;5012186;28;20421;-67
2022/08/04 10:18:22;;;;;;;9.70;3.50;;;33.10;54.30;;;;;;4995297;28;20062;-67
2022/08/04 10:20:55;;;;;;;4.43;2.83;;;33.20;53.60;;;;;;4993909;28;20386;-67
2022/08/04 10:23:45;;;;;;;7.40;3.20;;;33.20;53.00;;;;;;4993954;28;20295;-66
2022/08/04 10:26:32;;;;;;;5.82;2.90;;;33.30;52.90;;;;;;5006981;28;20505;-67
2022/08/04 10:29:08;;;;;;;4.18;2.75;;;33.30;52.90;;;;;;4993549;28;20035;-67
2022/08/04 10:31:38;;;;;;;4.45;2.78;;;33.40;52.30;;;;;;5000197;28;20580;-67
2022/08/04 10:34:19;;;;;;;5.50;2.78;;;33.50;52.20;;;;;;5019619;28;20045;-67
2022/08/04 10:37:05;;;;;;;6.32;3.13;;;33.50;52.10;;;;;;5021348;28;20095;-67
2022/08/04 10:42:44;;;;;;;7.68;2.92;;;33.60;52.10;;;;;;5012647;28;20524;-68
2022/08/04 10:45:18;;;;;;;3.50;2.70;;;33.70;51.50;;;;;;5010399;28;20026;-67
2022/08/04 10:48:12;;;;;;;4.78;2.83;;;33.80;51.60;;;;;;5012061;28;20034;-67
2022/08/04 10:50:44;;;;;;;3.30;2.75;;;33.80;51.50;;;;;;5012421;28;20366;-68
2022/08/04 10:53:19;;;;;;;5.40;3.22;;;33.90;51.70;;;;;;5012325;28;20527;-67
2022/08/04 10:55:55;;;;;;;4.80;3.45;;;33.90;51.50;;;;;;5011759;28;20042;-66
2022/08/04 10:58:29;;;;;;;4.68;2.60;;;34.00;51.30;;;;;;5011875;28;20537;-67
2022/08/04 11:00:59;;;;;;;3.17;2.70;;;34.10;51.50;;;;;;5009569;28;20041;-67
2022/08/04 11:03:48;;;;;;;4.65;2.97;;;34.10;50.90;;;;;;5012272;28;20087;-66
2022/08/04 11:06:14;;;;;;;3.45;2.97;;;34.20;51.20;;;;;;5012534;28;20050;-67
2022/08/04 11:08:50;;;;;;;4.13;2.90;;;34.30;50.70;;;;;;5011631;28;20030;-67
2022/08/04 11:11:43;;;;;;;4.28;2.60;;;34.30;50.40;;;;;;5011589;28;20042;-66
2022/08/04 11:14:18;;;;;;;5.63;2.85;;;34.30;49.90;;;;;;5011526;28;20025;-66
2022/08/04 11:17:07;;;;;;;5.55;2.92;;;34.40;49.80;;;;;;5011902;28;20154;-68
2022/08/04 11:20:00;;;;;;;4.95;3.20;;;34.40;49.30;;;;;;5008867;28;20042;-66
2022/08/04 11:22:27;;;;;;;4.10;2.63;;;34.50;49.60;;;;;;4997118;28;20042;-66
2022/08/04 11:25:25;;;;;;;3.92;2.88;;;34.60;49.50;;;;;;5007537;28;20030;-67
2022/08/04 11:28:21;;;;;;;4.78;2.97;;;34.60;49.60;;;;;;5008986;28;20042;-66
2022/08/04 11:30:55;;;;;;;3.40;2.72;;;34.70;48.90;;;;;;4992348;28;20113;-66
2022/08/04 11:33:48;;;;;;;5.53;3.03;;;34.70;49.20;;;;;;5024869;28;20040;-66
2022/08/04 11:37:05;;;;;;;3.05;2.67;;;34.70;49.70;;;;;;5011647;28;20042;-66
2022/08/04 11:39:59;;;;;;;4.95;2.90;;;34.70;48.80;;;;;;5009182;28;20059;-66
2022/08/04 11:42:38;;;;;;;7.43;3.15;;;34.80;48.70;;;;;;5010229;28;20041;-66
2022/08/04 11:45:14;;;;;;;3.85;2.85;;;34.80;48.90;;;;;;5010493;28;20033;-67
2022/08/04 11:47:42;;;;;;;4.38;3.20;;;34.90;48.60;;;;;;5000425;28;20029;-67
2022/08/04 11:50:24;;;;;;;5.03;2.97;;;34.90;48.10;;;;;;5010278;28;20030;-66
2022/08/04 11:52:52;;;;;;;6.53;3.17;;;34.90;48.10;;;;;;4998263;28;20562;-66
2022/08/04 11:55:21;;;;;;;3.72;2.70;;;34.90;47.70;;;;;;5011270;28;20103;-66
2022/08/04 11:57:47;;;;;;;6.18;3.08;;;35.00;47.90;;;;;;5010240;28;20037;-66
2022/08/04 12:00:16;;;;;;;4.35;2.92;;;35.00;48.10;;;;;;5010406;28;20056;-67
2022/08/04 12:03:32;;;;;;;4.00;2.22;;;35.10;48.10;;;;;;5010731;28;20057;-67
2022/08/04 12:06:30;;;;;;;3.53;2.30;;;35.20;47.70;;;;;;5019402;28;20050;-67
2022/08/04 12:09:06;;;;;;;4.78;2.72;;;35.20;47.10;;;;;;5004506;28;20377;-67
2022/08/04 12:11:50;;;;;;;5.55;2.63;;;35.30;47.80;;;;;;5015331;28;20029;-66
2022/08/04 12:14:27;;;;;;;4.10;2.38;;;35.30;47.60;;;;;;5015742;28;20018;-66
2022/08/04 12:17:00;;;;;;;3.78;2.63;;;35.40;47.50;;;;;;5014935;28;20045;-67
2022/08/04 12:19:37;;;;;;;4.93;3.00;;;35.40;46.70;;;;;;5013024;28;20026;-67
2022/08/04 12:22:08;;;;;;;4.13;2.78;;;35.40;47.10;;;;;;5014045;28;20057;-68
2022/08/04 12:24:43;;;;;;;6.63;2.97;;;35.50;46.00;;;;;;5009510;28;20026;-68
2022/08/04 12:27:28;;;;;;;4.30;3.47;;;35.50;47.20;;;;;;5014443;28;20050;-66
2022/08/04 12:29:54;;;;;;;5.07;3.40;;;35.60;46.60;;;;;;5013490;28;20029;-66
2022/08/04 12:32:30;;;;;;;4.75;3.20;;;35.60;46.30;;;;;;5014510;28;20190;-67
2022/08/04 12:35:19;;;;;;;5.85;2.90;;;35.70;46.30;;;;;;5013811;28;20124;-67
2022/08/04 12:37:52;;;;;;;5.38;3.20;;;35.70;46.10;;;;;;5014932;28;20033;-67
2022/08/04 12:40:26;;;;;;;4.47;2.90;;;35.80;46.30;;;;;;5014501;28;20160;-67
2022/08/04 12:43:07;;;;;;;5.78;3.28;;;35.90;46.40;;;;;;5013507;28;20168;-68
2022/08/04 12:45:34;;;;;;;4.88;3.40;;;35.90;46.40;;;;;;5014176;28;20040;-67
2022/08/04 12:48:03;;;;;;;6.35;3.40;;;35.90;46.20;;;;;;5014356;28;20057;-68
2022/08/04 12:50:30;;;;;;;4.63;3.10;;;35.90;45.40;;;;;;5013849;28;20044;-68
2022/08/04 12:52:57;;;;;;;5.38;2.85;;;36.00;45.50;;;;;;5013881;28;20098;-68
2022/08/04 12:55:27;;;;;;;3.80;2.90;;;36.00;45.20;;;;;;5014235;28;20497;-68
2022/08/04 12:57:55;;;;;;;3.25;2.58;;;36.10;45.10;;;;;;5014064;28;20041;-68
2022/08/04 13:00:32;;;;;;;6.25;2.97;;;36.20;45.30;;;;;;5013148;28;20026;-68
2022/08/04 13:03:16;;;;;;;5.03;2.60;;;36.20;45.10;;;;;;5014289;28;20026;-68
2022/08/04 13:05:43;;;;;;;3.17;2.67;;;36.30;44.90;;;;;;5013197;28;20525;-67
2022/08/04 13:08:11;;;;;;;4.72;2.67;;;36.30;44.60;;;;;;5013153;28;20045;-68
2022/08/04 13:10:43;;;;;;;4.18;2.75;;;36.30;44.80;;;;;;5012998;28;20034;-68
2022/08/04 13:13:20;;;;;;;4.60;2.70;;;36.40;44.30;;;;;;5004333;28;20026;-68
2022/08/04 13:16:00;;;;;;;3.85;2.75;;;36.40;43.90;;;;;;5009726;28;20038;-66
2022/08/04 13:18:32;;;;;;;6.32;2.60;;;36.50;44.20;;;;;;5007311;28;20026;-67
2022/08/04 13:21:08;;;;;;;4.15;2.90;;;36.50;43.60;;;;;;5014762;28;20024;-67
2022/08/04 13:23:36;;;;;;;5.45;2.60;;;36.50;43.80;;;;;;5012760;28;20045;-68
2022/08/04 13:26:03;;;;;;;3.25;2.63;;;36.50;43.20;;;;;;5014421;28;20109;-67
2022/08/04 13:28:33;;;;;;;4.90;2.97;;;36.60;43.40;;;;;;5012445;28;20034;-68
2022/08/04 13:31:05;;;;;;;5.38;2.83;;;36.60;43.30;;;;;;5014133;28;20492;-67
2022/08/04 13:33:34;;;;;;;6.85;2.83;;;36.60;42.70;;;;;;5012740;28;20093;-67
2022/08/04 13:36:00;;;;;;;5.72;2.53;;;36.60;42.70;;;;;;5013648;28;20037;-67
2022/08/04 13:38:28;;;;;;;3.42;2.35;;;36.60;42.90;;;;;;5012583;28;20029;-67